sensor_id;sensor_type;location;lat;lon;timestamp;temperature;humidity
7720;DHT22;3902;49.474;8.616;2023-04-08T00:00:14;10.10;99.90
7720;DHT22;3902;49.474;8.616;2023-04-08T00:02:40;10.10;99.90
7720;DHT22;3902;49.474;8.616;2023-04-08T00:05:06;10.20;99.90
7720;DHT22;3902;49.474;8.616;2023-04-08T00:07:32;10.20;99.90
7720;DHT22;3902;49.474;8.616;2023-04-08T00:09:58;10.20;99.90
7720;DHT22;3902;49.474;8.616;2023-04-08T00:12:23;10.20;99.90
7720;DHT22;3902;49.474;8.616;2023-04-08T00:14:49;10.20;99.90
7720;DHT22;3902;49.474;8.616;2023-04-08T00:17:14;10.30;99.90
7720;DHT22;3902;49.474;8.616;2023-04-08T00:19:41;10.20;99.90
7720;DHT22;3902;49.474;8.616;2023-04-08T00:22:06;10.20;99.90
7720;DHT22;3902;49.474;8.616;2023-04-08T00:24:32;10.20;99.90
7720;DHT22;3902;49.474;8.616;2023-04-08T00:26:58;10.20;99.90
7720;DHT22;3902;49.474;8.616;2023-04-08T00:29:23;10.20;99.90
7720;DHT22;3902;49.474;8.616;2023-04-08T00:31:49;10.20;99.90
7720;DHT22;3902;49.474;8.616;2023-04-08T00:34:15;10.20;99.90
7720;DHT22;3902;49.474;8.616;2023-04-08T00:36:41;10.10;99.90
7720;DHT22;3902;49.474;8.616;2023-04-08T00:39:07;10.10;99.90
7720;DHT22;3902;49.474;8.616;2023-04-08T00:41:33;10.10;99.90
7720;DHT22;3902;49.474;8.616;2023-04-08T00:44:00;10.10;99.90
7720;DHT22;3902;49.474;8.616;2023-04-08T00:46:25;10.10;99.90
7720;DHT22;3902;49.474;8.616;2023-04-08T00:48:51;10.10;99.90
7720;DHT22;3902;49.474;8.616;2023-04-08T00:51:18;10.10;99.90
7720;DHT22;3902;49.474;8.616;2023-04-08T00:53:43;10.10;99.90
7720;DHT22;3902;49.474;8.616;2023-04-08T00:56:09;10.20;99.90
7720;DHT22;3902;49.474;8.616;2023-04-08T00:58:35;10.20;99.90
7720;DHT22;3902;49.474;8.616;2023-04-08T01:01:15;10.20;99.90
7720;DHT22;3902;49.474;8.616;2023-04-08T01:03:55;10.20;99.90
7720;DHT22;3902;49.474;8.616;2023-04-08T01:06:31;10.30;99.90
7720;DHT22;3902;49.474;8.616;2023-04-08T01:09:04;10.20;99.90
7720;DHT22;3902;49.474;8.616;2023-04-08T01:11:31;10.20;99.90
7720;DHT22;3902;49.474;8.616;2023-04-08T01:14:00;10.20;99.90
7720;DHT22;3902;49.474;8.616;2023-04-08T01:16:27;10.20;99.90
7720;DHT22;3902;49.474;8.616;2023-04-08T01:18:54;10.20;99.90
7720;DHT22;3902;49.474;8.616;2023-04-08T01:21:21;10.20;99.90
7720;DHT22;3902;49.474;8.616;2023-04-08T01:24:06;10.20;99.90
7720;DHT22;3902;49.474;8.616;2023-04-08T01:26:34;10.10;99.90
7720;DHT22;3902;49.474;8.616;2023-04-08T01:29:02;10.10;99.90
7720;DHT22;3902;49.474;8.616;2023-04-08T01:31:29;10.10;99.90
7720;DHT22;3902;49.474;8.616;2023-04-08T01:33:56;10.20;99.90
7720;DHT22;3902;49.474;8.616;2023-04-08T01:36:25;10.10;99.90
7720;DHT22;3902;49.474;8.616;2023-04-08T01:38:50;10.20;99.90
7720;DHT22;3902;49.474;8.616;2023-04-08T01:41:17;10.20;99.90
7720;DHT22;3902;49.474;8.616;2023-04-08T01:43:44;10.10;99.90
7720;DHT22;3902;49.474;8.616;2023-04-08T01:46:11;10.10;99.90
7720;DHT22;3902;49.474;8.616;2023-04-08T01:48:38;10.10;99.90
7720;DHT22;3902;49.474;8.616;2023-04-08T01:51:05;10.20;99.90
7720;DHT22;3902;49.474;8.616;2023-04-08T01:53:31;10.10;99.90
7720;DHT22;3902;49.474;8.616;2023-04-08T01:56:04;10.10;99.90
7720;DHT22;3902;49.474;8.616;2023-04-08T01:58:35;10.20;99.90
7720;DHT22;3902;49.474;8.616;2023-04-08T02:01:02;10.20;99.90
7720;DHT22;3902;49.474;8.616;2023-04-08T02:03:29;10.20;99.90
7720;DHT22;3902;49.474;8.616;2023-04-08T02:05:55;10.20;99.90
7720;DHT22;3902;49.474;8.616;2023-04-08T02:08:21;10.20;99.90
7720;DHT22;3902;49.474;8.616;2023-04-08T02:10:46;10.20;99.90
7720;DHT22;3902;49.474;8.616;2023-04-08T02:13:12;10.30;99.90
7720;DHT22;3902;49.474;8.616;2023-04-08T02:15:41;10.30;99.90
7720;DHT22;3902;49.474;8.616;2023-04-08T02:18:12;10.30;99.90
7720;DHT22;3902;49.474;8.616;2023-04-08T02:20:46;10.40;99.90
7720;DHT22;3902;49.474;8.616;2023-04-08T02:23:20;10.40;99.90
7720;DHT22;3902;49.474;8.616;2023-04-08T02:25:47;10.40;99.90
7720;DHT22;3902;49.474;8.616;2023-04-08T02:28:14;10.40;99.90
7720;DHT22;3902;49.474;8.616;2023-04-08T02:30:44;10.40;99.90
7720;DHT22;3902;49.474;8.616;2023-04-08T02:33:12;10.30;99.90
7720;DHT22;3902;49.474;8.616;2023-04-08T02:35:39;10.30;99.90
7720;DHT22;3902;49.474;8.616;2023-04-08T02:38:05;10.30;99.90
7720;DHT22;3902;49.474;8.616;2023-04-08T02:40:32;10.20;99.90
7720;DHT22;3902;49.474;8.616;2023-04-08T02:42:59;10.30;99.90
7720;DHT22;3902;49.474;8.616;2023-04-08T02:45:34;10.20;99.90
7720;DHT22;3902;49.474;8.616;2023-04-08T02:48:02;10.20;99.90
7720;DHT22;3902;49.474;8.616;2023-04-08T02:50:28;10.20;99.90
7720;DHT22;3902;49.474;8.616;2023-04-08T02:52:54;10.10;99.90
7720;DHT22;3902;49.474;8.616;2023-04-08T02:55:19;10.10;99.90
7720;DHT22;3902;49.474;8.616;2023-04-08T02:57:46;10.10;99.90
7720;DHT22;3902;49.474;8.616;2023-04-08T03:00:12;10.10;99.90
7720;DHT22;3902;49.474;8.616;2023-04-08T03:02:38;10.00;99.90
7720;DHT22;3902;49.474;8.616;2023-04-08T03:05:04;10.00;99.90
7720;DHT22;3902;49.474;8.616;2023-04-08T03:07:30;10.00;99.90
7720;DHT22;3902;49.474;8.616;2023-04-08T03:09:56;10.00;99.90
7720;DHT22;3902;49.474;8.616;2023-04-08T03:12:22;10.00;99.90
7720;DHT22;3902;49.474;8.616;2023-04-08T03:14:48;10.00;99.90
7720;DHT22;3902;49.474;8.616;2023-04-08T03:17:14;9.90;99.90
7720;DHT22;3902;49.474;8.616;2023-04-08T03:19:39;10.00;99.90
7720;DHT22;3902;49.474;8.616;2023-04-08T03:22:05;10.00;99.90
7720;DHT22;3902;49.474;8.616;2023-04-08T03:24:30;10.00;99.90
7720;DHT22;3902;49.474;8.616;2023-04-08T03:26:56;10.00;99.90
7720;DHT22;3902;49.474;8.616;2023-04-08T03:29:21;10.00;99.90
7720;DHT22;3902;49.474;8.616;2023-04-08T03:31:47;10.00;99.90
7720;DHT22;3902;49.474;8.616;2023-04-08T03:34:12;10.00;99.90
7720;DHT22;3902;49.474;8.616;2023-04-08T03:36:38;10.00;99.90
7720;DHT22;3902;49.474;8.616;2023-04-08T03:39:03;10.00;99.90
7720;DHT22;3902;49.474;8.616;2023-04-08T03:41:30;10.00;99.90
7720;DHT22;3902;49.474;8.616;2023-04-08T03:43:56;10.00;99.90
7720;DHT22;3902;49.474;8.616;2023-04-08T03:46:21;10.00;99.90
7720;DHT22;3902;49.474;8.616;2023-04-08T03:48:47;10.00;99.90
7720;DHT22;3902;49.474;8.616;2023-04-08T03:51:13;10.00;99.90
7720;DHT22;3902;49.474;8.616;2023-04-08T03:53:38;10.00;99.90
7720;DHT22;3902;49.474;8.616;2023-04-08T03:56:04;10.00;99.90
7720;DHT22;3902;49.474;8.616;2023-04-08T03:58:30;10.10;99.90
7720;DHT22;3902;49.474;8.616;2023-04-08T04:00:56;10.10;99.90
7720;DHT22;3902;49.474;8.616;2023-04-08T04:03:21;10.10;99.90
7720;DHT22;3902;49.474;8.616;2023-04-08T04:05:47;10.10;99.90
7720;DHT22;3902;49.474;8.616;2023-04-08T04:08:13;10.10;99.90
7720;DHT22;3902;49.474;8.616;2023-04-08T04:10:38;10.10;99.90
7720;DHT22;3902;49.474;8.616;2023-04-08T04:13:04;10.10;99.90
7720;DHT22;3902;49.474;8.616;2023-04-08T04:15:30;10.10;99.90
7720;DHT22;3902;49.474;8.616;2023-04-08T04:17:55;10.10;99.90
7720;DHT22;3902;49.474;8.616;2023-04-08T04:20:21;10.10;99.90
7720;DHT22;3902;49.474;8.616;2023-04-08T04:22:46;10.10;99.90
7720;DHT22;3902;49.474;8.616;2023-04-08T04:25:12;10.10;99.90
7720;DHT22;3902;49.474;8.616;2023-04-08T04:27:38;10.10;99.90
7720;DHT22;3902;49.474;8.616;2023-04-08T04:30:03;10.10;99.90
7720;DHT22;3902;49.474;8.616;2023-04-08T04:32:29;10.10;99.90
7720;DHT22;3902;49.474;8.616;2023-04-08T04:34:55;10.10;99.90
7720;DHT22;3902;49.474;8.616;2023-04-08T04:37:20;10.10;99.90
7720;DHT22;3902;49.474;8.616;2023-04-08T04:39:46;10.10;99.90
7720;DHT22;3902;49.474;8.616;2023-04-08T04:42:12;10.10;99.90
7720;DHT22;3902;49.474;8.616;2023-04-08T04:44:37;10.10;99.90
7720;DHT22;3902;49.474;8.616;2023-04-08T04:47:03;10.10;99.90
7720;DHT22;3902;49.474;8.616;2023-04-08T04:49:28;10.10;99.90
7720;DHT22;3902;49.474;8.616;2023-04-08T04:51:54;10.10;99.90
7720;DHT22;3902;49.474;8.616;2023-04-08T04:54:19;10.10;99.90
7720;DHT22;3902;49.474;8.616;2023-04-08T04:56:45;10.10;99.90
7720;DHT22;3902;49.474;8.616;2023-04-08T04:59:11;10.00;99.90
7720;DHT22;3902;49.474;8.616;2023-04-08T05:01:37;10.00;99.90
7720;DHT22;3902;49.474;8.616;2023-04-08T05:04:05;10.00;99.90
7720;DHT22;3902;49.474;8.616;2023-04-08T05:06:30;10.00;99.90
7720;DHT22;3902;49.474;8.616;2023-04-08T05:08:56;10.00;99.90
7720;DHT22;3902;49.474;8.616;2023-04-08T05:11:21;10.00;99.90
7720;DHT22;3902;49.474;8.616;2023-04-08T05:13:47;10.00;99.90
7720;DHT22;3902;49.474;8.616;2023-04-08T05:16:12;10.00;99.90
7720;DHT22;3902;49.474;8.616;2023-04-08T05:18:38;10.00;99.90
7720;DHT22;3902;49.474;8.616;2023-04-08T05:21:04;10.00;99.90
7720;DHT22;3902;49.474;8.616;2023-04-08T05:23:29;10.00;99.90
7720;DHT22;3902;49.474;8.616;2023-04-08T05:25:55;10.00;99.90
7720;DHT22;3902;49.474;8.616;2023-04-08T05:28:21;10.00;99.90
7720;DHT22;3902;49.474;8.616;2023-04-08T05:30:50;10.00;99.90
7720;DHT22;3902;49.474;8.616;2023-04-08T05:33:17;10.00;99.90
7720;DHT22;3902;49.474;8.616;2023-04-08T05:35:42;10.00;99.90
7720;DHT22;3902;49.474;8.616;2023-04-08T05:38:08;10.10;99.90
7720;DHT22;3902;49.474;8.616;2023-04-08T05:40:33;10.10;99.90
7720;DHT22;3902;49.474;8.616;2023-04-08T05:42:59;10.10;99.90
7720;DHT22;3902;49.474;8.616;2023-04-08T05:45:25;10.10;99.90
7720;DHT22;3902;49.474;8.616;2023-04-08T05:47:51;10.10;99.90
7720;DHT22;3902;49.474;8.616;2023-04-08T05:50:17;10.10;99.90
7720;DHT22;3902;49.474;8.616;2023-04-08T05:52:43;10.10;99.90
7720;DHT22;3902;49.474;8.616;2023-04-08T05:55:09;10.10;99.90
7720;DHT22;3902;49.474;8.616;2023-04-08T05:57:35;10.20;99.90
7720;DHT22;3902;49.474;8.616;2023-04-08T06:00:01;10.20;99.90
7720;DHT22;3902;49.474;8.616;2023-04-08T06:02:27;10.10;99.90
7720;DHT22;3902;49.474;8.616;2023-04-08T06:04:52;10.20;99.90
7720;DHT22;3902;49.474;8.616;2023-04-08T06:07:18;10.20;99.90
7720;DHT22;3902;49.474;8.616;2023-04-08T06:09:43;10.20;99.90
7720;DHT22;3902;49.474;8.616;2023-04-08T06:12:09;10.10;99.90
7720;DHT22;3902;49.474;8.616;2023-04-08T06:14:34;10.10;99.90
7720;DHT22;3902;49.474;8.616;2023-04-08T06:17:00;10.10;99.90
7720;DHT22;3902;49.474;8.616;2023-04-08T06:19:25;10.10;99.90
7720;DHT22;3902;49.474;8.616;2023-04-08T06:21:51;10.10;99.90
7720;DHT22;3902;49.474;8.616;2023-04-08T06:24:16;10.10;99.90
7720;DHT22;3902;49.474;8.616;2023-04-08T06:26:42;10.10;99.90
7720;DHT22;3902;49.474;8.616;2023-04-08T06:29:07;10.10;99.90
7720;DHT22;3902;49.474;8.616;2023-04-08T06:31:33;10.20;99.90
7720;DHT22;3902;49.474;8.616;2023-04-08T06:33:58;10.20;99.90
7720;DHT22;3902;49.474;8.616;2023-04-08T06:36:24;10.20;99.90
7720;DHT22;3902;49.474;8.616;2023-04-08T06:38:50;10.10;99.90
7720;DHT22;3902;49.474;8.616;2023-04-08T06:41:15;10.10;99.90
7720;DHT22;3902;49.474;8.616;2023-04-08T06:43:41;10.20;99.90
7720;DHT22;3902;49.474;8.616;2023-04-08T06:46:06;10.10;99.90
7720;DHT22;3902;49.474;8.616;2023-04-08T06:48:32;10.10;99.90
7720;DHT22;3902;49.474;8.616;2023-04-08T06:50:58;10.10;99.90
7720;DHT22;3902;49.474;8.616;2023-04-08T06:53:25;10.20;99.90
7720;DHT22;3902;49.474;8.616;2023-04-08T06:55:50;10.20;99.90
7720;DHT22;3902;49.474;8.616;2023-04-08T06:58:16;10.20;99.90
7720;DHT22;3902;49.474;8.616;2023-04-08T07:00:42;10.20;99.90
7720;DHT22;3902;49.474;8.616;2023-04-08T07:03:08;10.20;99.90
7720;DHT22;3902;49.474;8.616;2023-04-08T07:05:37;10.30;99.90
7720;DHT22;3902;49.474;8.616;2023-04-08T07:08:03;10.30;99.90
7720;DHT22;3902;49.474;8.616;2023-04-08T07:10:29;10.20;99.90
7720;DHT22;3902;49.474;8.616;2023-04-08T07:12:54;10.20;99.90
7720;DHT22;3902;49.474;8.616;2023-04-08T07:15:21;10.20;99.90
7720;DHT22;3902;49.474;8.616;2023-04-08T07:17:46;10.20;99.90
7720;DHT22;3902;49.474;8.616;2023-04-08T07:20:12;10.10;99.90
7720;DHT22;3902;49.474;8.616;2023-04-08T07:22:38;10.10;99.90
7720;DHT22;3902;49.474;8.616;2023-04-08T07:25:04;10.10;99.90
7720;DHT22;3902;49.474;8.616;2023-04-08T07:27:30;10.10;99.90
7720;DHT22;3902;49.474;8.616;2023-04-08T07:29:56;10.10;99.90
7720;DHT22;3902;49.474;8.616;2023-04-08T07:32:22;10.20;99.90
7720;DHT22;3902;49.474;8.616;2023-04-08T07:34:48;10.20;99.90
7720;DHT22;3902;49.474;8.616;2023-04-08T07:37:13;10.20;99.90
7720;DHT22;3902;49.474;8.616;2023-04-08T07:39:39;10.20;99.90
7720;DHT22;3902;49.474;8.616;2023-04-08T07:42:04;10.10;99.90
7720;DHT22;3902;49.474;8.616;2023-04-08T07:44:30;10.20;99.90
7720;DHT22;3902;49.474;8.616;2023-04-08T07:46:55;10.30;99.90
7720;DHT22;3902;49.474;8.616;2023-04-08T07:49:21;10.40;99.90
7720;DHT22;3902;49.474;8.616;2023-04-08T07:51:46;10.40;99.90
7720;DHT22;3902;49.474;8.616;2023-04-08T07:54:12;10.40;99.90
7720;DHT22;3902;49.474;8.616;2023-04-08T07:56:42;10.50;99.90
7720;DHT22;3902;49.474;8.616;2023-04-08T07:59:09;10.50;99.90
7720;DHT22;3902;49.474;8.616;2023-04-08T08:01:35;10.60;99.90
7720;DHT22;3902;49.474;8.616;2023-04-08T08:04:00;10.60;99.90
7720;DHT22;3902;49.474;8.616;2023-04-08T08:06:26;10.70;99.90
7720;DHT22;3902;49.474;8.616;2023-04-08T08:08:57;10.80;99.90
7720;DHT22;3902;49.474;8.616;2023-04-08T08:11:22;10.80;99.90
7720;DHT22;3902;49.474;8.616;2023-04-08T08:13:48;10.90;99.90
7720;DHT22;3902;49.474;8.616;2023-04-08T08:16:13;11.00;99.90
7720;DHT22;3902;49.474;8.616;2023-04-08T08:18:39;11.10;99.90
7720;DHT22;3902;49.474;8.616;2023-04-08T08:21:06;11.10;99.90
7720;DHT22;3902;49.474;8.616;2023-04-08T08:23:31;11.10;99.90
7720;DHT22;3902;49.474;8.616;2023-04-08T08:26:05;11.30;99.90
7720;DHT22;3902;49.474;8.616;2023-04-08T08:28:32;11.40;99.90
7720;DHT22;3902;49.474;8.616;2023-04-08T08:31:00;11.40;99.90
7720;DHT22;3902;49.474;8.616;2023-04-08T08:33:26;11.40;99.90
7720;DHT22;3902;49.474;8.616;2023-04-08T08:35:52;11.50;99.90
7720;DHT22;3902;49.474;8.616;2023-04-08T08:38:18;11.50;99.90
7720;DHT22;3902;49.474;8.616;2023-04-08T08:40:44;11.60;99.90
7720;DHT22;3902;49.474;8.616;2023-04-08T08:43:10;11.70;99.90
7720;DHT22;3902;49.474;8.616;2023-04-08T08:45:40;11.70;99.90
7720;DHT22;3902;49.474;8.616;2023-04-08T08:48:09;11.90;99.90
7720;DHT22;3902;49.474;8.616;2023-04-08T08:50:35;11.90;99.90
7720;DHT22;3902;49.474;8.616;2023-04-08T08:53:00;11.90;99.90
7720;DHT22;3902;49.474;8.616;2023-04-08T08:55:29;11.90;99.90
7720;DHT22;3902;49.474;8.616;2023-04-08T08:57:56;12.00;99.90
7720;DHT22;3902;49.474;8.616;2023-04-08T09:00:36;11.90;99.90
7720;DHT22;3902;49.474;8.616;2023-04-08T09:03:19;11.90;99.90
7720;DHT22;3902;49.474;8.616;2023-04-08T09:05:50;11.90;99.90
7720;DHT22;3902;49.474;8.616;2023-04-08T09:11:14;12.20;99.90
7720;DHT22;3902;49.474;8.616;2023-04-08T09:13:40;12.20;99.90
7720;DHT22;3902;49.474;8.616;2023-04-08T09:16:08;12.20;99.90
7720;DHT22;3902;49.474;8.616;2023-04-08T09:18:35;12.20;99.90
7720;DHT22;3902;49.474;8.616;2023-04-08T09:21:03;12.20;99.90
7720;DHT22;3902;49.474;8.616;2023-04-08T09:23:40;12.20;99.90
7720;DHT22;3902;49.474;8.616;2023-04-08T09:26:11;12.30;99.90
7720;DHT22;3902;49.474;8.616;2023-04-08T09:28:38;12.40;99.90
7720;DHT22;3902;49.474;8.616;2023-04-08T09:31:20;12.50;99.90
7720;DHT22;3902;49.474;8.616;2023-04-08T09:33:47;12.60;99.90
7720;DHT22;3902;49.474;8.616;2023-04-08T09:36:14;12.70;99.90
7720;DHT22;3902;49.474;8.616;2023-04-08T09:38:40;12.60;99.90
7720;DHT22;3902;49.474;8.616;2023-04-08T09:41:06;12.70;99.90
7720;DHT22;3902;49.474;8.616;2023-04-08T09:43:36;12.80;99.90
7720;DHT22;3902;49.474;8.616;2023-04-08T09:46:07;12.80;99.90
7720;DHT22;3902;49.474;8.616;2023-04-08T09:48:39;13.00;99.90
7720;DHT22;3902;49.474;8.616;2023-04-08T09:51:06;13.10;99.90
7720;DHT22;3902;49.474;8.616;2023-04-08T09:53:41;13.20;99.90
7720;DHT22;3902;49.474;8.616;2023-04-08T09:56:10;13.40;99.90
7720;DHT22;3902;49.474;8.616;2023-04-08T09:58:53;13.50;99.90
7720;DHT22;3902;49.474;8.616;2023-04-08T10:01:31;13.50;99.90
7720;DHT22;3902;49.474;8.616;2023-04-08T10:04:04;13.60;99.90
7720;DHT22;3902;49.474;8.616;2023-04-08T10:06:32;13.70;99.90
7720;DHT22;3902;49.474;8.616;2023-04-08T10:08:58;13.70;99.90
7720;DHT22;3902;49.474;8.616;2023-04-08T10:11:26;13.80;99.90
7720;DHT22;3902;49.474;8.616;2023-04-08T10:13:52;13.70;99.90
7720;DHT22;3902;49.474;8.616;2023-04-08T10:16:24;13.70;99.90
7720;DHT22;3902;49.474;8.616;2023-04-08T10:18:55;13.70;99.90
7720;DHT22;3902;49.474;8.616;2023-04-08T10:21:40;13.70;99.90
7720;DHT22;3902;49.474;8.616;2023-04-08T10:24:12;13.70;99.90
7720;DHT22;3902;49.474;8.616;2023-04-08T10:26:40;13.70;99.90
7720;DHT22;3902;49.474;8.616;2023-04-08T10:31:47;13.50;99.90
7720;DHT22;3902;49.474;8.616;2023-04-08T10:34:23;13.40;99.90
7720;DHT22;3902;49.474;8.616;2023-04-08T10:36:51;13.30;99.90
7720;DHT22;3902;49.474;8.616;2023-04-08T10:39:17;13.30;99.90
7720;DHT22;3902;49.474;8.616;2023-04-08T10:41:48;13.20;99.90
7720;DHT22;3902;49.474;8.616;2023-04-08T10:44:32;13.20;99.90
7720;DHT22;3902;49.474;8.616;2023-04-08T10:46:57;13.20;99.90
7720;DHT22;3902;49.474;8.616;2023-04-08T10:49:31;13.10;99.90
7720;DHT22;3902;49.474;8.616;2023-04-08T10:51:57;13.20;99.90
7720;DHT22;3902;49.474;8.616;2023-04-08T10:54:23;13.10;99.90
7720;DHT22;3902;49.474;8.616;2023-04-08T10:56:50;13.10;99.90
7720;DHT22;3902;49.474;8.616;2023-04-08T10:59:27;13.10;99.90
7720;DHT22;3902;49.474;8.616;2023-04-08T11:01:53;13.00;99.90
7720;DHT22;3902;49.474;8.616;2023-04-08T11:04:19;13.00;99.90
7720;DHT22;3902;49.474;8.616;2023-04-08T11:06:47;13.10;99.90
7720;DHT22;3902;49.474;8.616;2023-04-08T11:09:14;13.00;99.90
7720;DHT22;3902;49.474;8.616;2023-04-08T11:11:42;13.00;99.90
7720;DHT22;3902;49.474;8.616;2023-04-08T11:14:08;13.00;99.90
7720;DHT22;3902;49.474;8.616;2023-04-08T11:16:34;13.00;99.90
7720;DHT22;3902;49.474;8.616;2023-04-08T11:19:03;12.90;99.90
7720;DHT22;3902;49.474;8.616;2023-04-08T11:21:30;12.90;99.90
7720;DHT22;3902;49.474;8.616;2023-04-08T11:23:56;13.00;99.90
7720;DHT22;3902;49.474;8.616;2023-04-08T11:26:22;13.00;99.90
7720;DHT22;3902;49.474;8.616;2023-04-08T11:28:49;13.10;99.90
7720;DHT22;3902;49.474;8.616;2023-04-08T11:31:16;13.20;99.90
7720;DHT22;3902;49.474;8.616;2023-04-08T11:33:46;13.30;99.90
7720;DHT22;3902;49.474;8.616;2023-04-08T11:36:17;13.40;99.90
7720;DHT22;3902;49.474;8.616;2023-04-08T11:38:43;13.50;99.90
7720;DHT22;3902;49.474;8.616;2023-04-08T11:41:09;13.70;99.90
7720;DHT22;3902;49.474;8.616;2023-04-08T11:43:36;13.90;99.90
7720;DHT22;3902;49.474;8.616;2023-04-08T11:46:11;14.10;99.90
7720;DHT22;3902;49.474;8.616;2023-04-08T11:48:40;14.40;99.90
7720;DHT22;3902;49.474;8.616;2023-04-08T11:51:06;14.50;99.90
7720;DHT22;3902;49.474;8.616;2023-04-08T11:53:37;14.60;99.90
7720;DHT22;3902;49.474;8.616;2023-04-08T11:56:23;14.70;99.90
7720;DHT22;3902;49.474;8.616;2023-04-08T11:58:49;14.80;99.90
7720;DHT22;3902;49.474;8.616;2023-04-08T12:01:15;15.00;99.90
7720;DHT22;3902;49.474;8.616;2023-04-08T12:03:54;15.10;99.90
7720;DHT22;3902;49.474;8.616;2023-04-08T12:06:20;15.40;99.90
7720;DHT22;3902;49.474;8.616;2023-04-08T12:08:45;15.60;99.90
7720;DHT22;3902;49.474;8.616;2023-04-08T12:11:11;15.70;99.90
7720;DHT22;3902;49.474;8.616;2023-04-08T12:13:36;16.20;99.90
7720;DHT22;3902;49.474;8.616;2023-04-08T12:16:02;16.70;99.90
7720;DHT22;3902;49.474;8.616;2023-04-08T12:18:27;17.10;99.90
7720;DHT22;3902;49.474;8.616;2023-04-08T12:20:53;17.30;99.90
7720;DHT22;3902;49.474;8.616;2023-04-08T12:23:19;17.30;99.90
7720;DHT22;3902;49.474;8.616;2023-04-08T12:25:44;17.10;99.90
7720;DHT22;3902;49.474;8.616;2023-04-08T12:28:10;17.00;99.90
7720;DHT22;3902;49.474;8.616;2023-04-08T12:30:36;16.80;99.90
7720;DHT22;3902;49.474;8.616;2023-04-08T12:33:01;16.70;99.90
7720;DHT22;3902;49.474;8.616;2023-04-08T12:35:27;16.60;99.90
7720;DHT22;3902;49.474;8.616;2023-04-08T12:37:52;16.50;99.90
7720;DHT22;3902;49.474;8.616;2023-04-08T12:40:18;16.40;99.90
7720;DHT22;3902;49.474;8.616;2023-04-08T12:42:44;16.30;99.90
7720;DHT22;3902;49.474;8.616;2023-04-08T12:45:09;16.00;99.90
7720;DHT22;3902;49.474;8.616;2023-04-08T12:47:35;15.90;99.90
7720;DHT22;3902;49.474;8.616;2023-04-08T12:50:01;15.80;99.90
7720;DHT22;3902;49.474;8.616;2023-04-08T12:52:26;15.80;99.90
7720;DHT22;3902;49.474;8.616;2023-04-08T12:54:52;15.70;99.90
7720;DHT22;3902;49.474;8.616;2023-04-08T12:57:17;15.70;99.90
7720;DHT22;3902;49.474;8.616;2023-04-08T12:59:43;15.70;99.90
7720;DHT22;3902;49.474;8.616;2023-04-08T13:02:08;15.60;99.90
7720;DHT22;3902;49.474;8.616;2023-04-08T13:04:34;15.50;99.90
7720;DHT22;3902;49.474;8.616;2023-04-08T13:06:59;15.40;99.90
7720;DHT22;3902;49.474;8.616;2023-04-08T13:09:25;15.50;99.90
7720;DHT22;3902;49.474;8.616;2023-04-08T13:11:50;15.60;99.90
7720;DHT22;3902;49.474;8.616;2023-04-08T13:14:16;15.70;99.90
7720;DHT22;3902;49.474;8.616;2023-04-08T13:16:42;15.90;99.90
7720;DHT22;3902;49.474;8.616;2023-04-08T13:19:08;16.10;99.90
7720;DHT22;3902;49.474;8.616;2023-04-08T13:21:33;16.30;99.90
7720;DHT22;3902;49.474;8.616;2023-04-08T13:23:59;16.50;99.90
7720;DHT22;3902;49.474;8.616;2023-04-08T13:26:24;16.70;99.90
7720;DHT22;3902;49.474;8.616;2023-04-08T13:28:50;16.70;99.90
7720;DHT22;3902;49.474;8.616;2023-04-08T13:31:17;17.00;99.90
7720;DHT22;3902;49.474;8.616;2023-04-08T13:33:43;17.70;99.90
7720;DHT22;3902;49.474;8.616;2023-04-08T13:36:08;18.40;99.90
7720;DHT22;3902;49.474;8.616;2023-04-08T13:38:34;18.80;98.70
7720;DHT22;3902;49.474;8.616;2023-04-08T13:41:00;19.20;98.70
7720;DHT22;3902;49.474;8.616;2023-04-08T13:43:26;19.30;98.80
7720;DHT22;3902;49.474;8.616;2023-04-08T13:45:52;19.10;98.50
7720;DHT22;3902;49.474;8.616;2023-04-08T13:48:17;19.00;98.60
7720;DHT22;3902;49.474;8.616;2023-04-08T13:50:43;18.80;98.60
7720;DHT22;3902;49.474;8.616;2023-04-08T13:53:08;18.70;98.50
7720;DHT22;3902;49.474;8.616;2023-04-08T13:55:34;18.60;98.10
7720;DHT22;3902;49.474;8.616;2023-04-08T13:57:59;18.20;97.70
7720;DHT22;3902;49.474;8.616;2023-04-08T14:00:25;18.10;98.40
7720;DHT22;3902;49.474;8.616;2023-04-08T14:02:51;17.80;98.00
7720;DHT22;3902;49.474;8.616;2023-04-08T14:05:17;17.60;98.60
7720;DHT22;3902;49.474;8.616;2023-04-08T14:07:43;17.30;98.60
7720;DHT22;3902;49.474;8.616;2023-04-08T14:10:08;17.20;99.70
7720;DHT22;3902;49.474;8.616;2023-04-08T14:12:34;17.10;99.50
7720;DHT22;3902;49.474;8.616;2023-04-08T14:15:00;16.90;99.90
7720;DHT22;3902;49.474;8.616;2023-04-08T14:17:27;16.80;99.90
7720;DHT22;3902;49.474;8.616;2023-04-08T14:19:52;16.60;99.90
7720;DHT22;3902;49.474;8.616;2023-04-08T14:22:18;16.50;99.90
7720;DHT22;3902;49.474;8.616;2023-04-08T14:24:43;16.40;99.90
7720;DHT22;3902;49.474;8.616;2023-04-08T14:27:09;16.20;99.90
7720;DHT22;3902;49.474;8.616;2023-04-08T14:29:34;15.90;99.90
7720;DHT22;3902;49.474;8.616;2023-04-08T14:32:00;15.80;99.90
7720;DHT22;3902;49.474;8.616;2023-04-08T14:34:26;15.70;99.90
7720;DHT22;3902;49.474;8.616;2023-04-08T14:36:51;15.60;99.90
7720;DHT22;3902;49.474;8.616;2023-04-08T14:39:17;15.60;99.90
7720;DHT22;3902;49.474;8.616;2023-04-08T14:41:42;15.50;99.90
7720;DHT22;3902;49.474;8.616;2023-04-08T14:44:08;15.50;99.90
7720;DHT22;3902;49.474;8.616;2023-04-08T14:46:33;15.60;99.90
7720;DHT22;3902;49.474;8.616;2023-04-08T14:48:59;15.50;99.90
7720;DHT22;3902;49.474;8.616;2023-04-08T14:51:25;15.50;99.90
7720;DHT22;3902;49.474;8.616;2023-04-08T14:53:50;15.30;99.90
7720;DHT22;3902;49.474;8.616;2023-04-08T14:56:16;15.30;99.90
7720;DHT22;3902;49.474;8.616;2023-04-08T14:58:41;15.30;99.90
7720;DHT22;3902;49.474;8.616;2023-04-08T15:01:07;15.30;99.90
7720;DHT22;3902;49.474;8.616;2023-04-08T15:03:33;15.30;99.90
7720;DHT22;3902;49.474;8.616;2023-04-08T15:05:58;15.30;99.90
7720;DHT22;3902;49.474;8.616;2023-04-08T15:08:24;15.30;99.90
7720;DHT22;3902;49.474;8.616;2023-04-08T15:10:50;15.20;99.90
7720;DHT22;3902;49.474;8.616;2023-04-08T15:13:15;15.20;99.90
7720;DHT22;3902;49.474;8.616;2023-04-08T15:15:41;15.10;99.90
7720;DHT22;3902;49.474;8.616;2023-04-08T15:18:06;15.20;99.90
7720;DHT22;3902;49.474;8.616;2023-04-08T15:20:32;15.10;99.90
7720;DHT22;3902;49.474;8.616;2023-04-08T15:22:57;15.20;99.90
7720;DHT22;3902;49.474;8.616;2023-04-08T15:25:23;15.30;99.90
7720;DHT22;3902;49.474;8.616;2023-04-08T15:27:49;15.30;99.90
7720;DHT22;3902;49.474;8.616;2023-04-08T15:30:14;15.30;99.90
7720;DHT22;3902;49.474;8.616;2023-04-08T15:32:41;15.40;99.90
7720;DHT22;3902;49.474;8.616;2023-04-08T15:35:07;15.40;99.90
7720;DHT22;3902;49.474;8.616;2023-04-08T15:37:33;15.60;99.90
7720;DHT22;3902;49.474;8.616;2023-04-08T15:39:58;15.60;99.90
7720;DHT22;3902;49.474;8.616;2023-04-08T15:42:24;15.70;99.90
7720;DHT22;3902;49.474;8.616;2023-04-08T15:44:49;15.90;99.90
7720;DHT22;3902;49.474;8.616;2023-04-08T15:47:15;16.10;99.90
7720;DHT22;3902;49.474;8.616;2023-04-08T15:49:41;16.30;99.90
7720;DHT22;3902;49.474;8.616;2023-04-08T15:52:06;16.60;99.90
7720;DHT22;3902;49.474;8.616;2023-04-08T15:54:33;16.80;99.90
7720;DHT22;3902;49.474;8.616;2023-04-08T15:56:58;17.00;99.90
7720;DHT22;3902;49.474;8.616;2023-04-08T15:59:24;17.10;99.90
7720;DHT22;3902;49.474;8.616;2023-04-08T16:01:52;17.10;99.90
7720;DHT22;3902;49.474;8.616;2023-04-08T16:04:18;17.10;99.90